createdAt,value
2022-07-28T00:00:03.904Z,13.12
2022-07-28T00:01:03.821Z,13.12
2022-07-28T00:02:03.834Z,13.06
2022-07-28T00:03:03.808Z,13.06
2022-07-28T00:04:03.831Z,13.06
2022-07-28T00:05:03.830Z,13.06
2022-07-28T00:06:03.818Z,13.06
2022-07-28T00:07:03.899Z,13.06
2022-07-28T00:08:03.984Z,13.06
2022-07-28T00:09:03.986Z,13.00
2022-07-28T00:10:04.406Z,13.00
2022-07-28T00:11:04.280Z,13.00
2022-07-28T00:12:04.381Z,13.00
2022-07-28T00:13:06.700Z,12.94
2022-07-28T00:14:04.451Z,12.94
2022-07-28T00:15:04.492Z,12.94
2022-07-28T00:16:04.547Z,12.94
2022-07-28T00:17:04.464Z,12.94
2022-07-28T00:18:04.460Z,12.88
2022-07-28T00:19:04.465Z,12.88
2022-07-28T00:20:04.463Z,12.88
2022-07-28T00:21:04.462Z,12.88
2022-07-28T00:22:03.500Z,12.81
2022-07-28T00:23:03.582Z,12.81
2022-07-28T00:24:03.498Z,12.81
2022-07-28T00:25:03.583Z,12.81
2022-07-28T00:26:03.494Z,12.81
2022-07-28T00:27:04.394Z,12.75
2022-07-28T00:28:04.393Z,12.75
2022-07-28T00:29:03.502Z,12.75
2022-07-28T00:30:03.503Z,12.69
2022-07-28T00:31:04.930Z,12.69
2022-07-28T00:32:03.756Z,12.69
2022-07-28T00:33:03.749Z,12.69
2022-07-28T00:34:03.754Z,12.62
2022-07-28T00:35:04.012Z,12.62
2022-07-28T00:36:03.916Z,12.62
2022-07-28T00:37:06.689Z,12.62
2022-07-28T00:38:04.072Z,12.62
2022-07-28T00:39:04.073Z,12.56
2022-07-28T00:40:04.398Z,12.56
2022-07-28T00:41:04.482Z,12.56
2022-07-28T00:42:04.478Z,12.56
2022-07-28T00:43:04.465Z,12.50
2022-07-28T00:44:04.074Z,12.50
2022-07-28T00:45:04.065Z,12.50
2022-07-28T00:46:04.041Z,12.50
2022-07-28T00:47:04.046Z,12.44
2022-07-28T00:48:04.081Z,12.44
2022-07-28T00:49:04.047Z,12.44
2022-07-28T00:50:03.993Z,12.44
2022-07-28T00:51:04.077Z,12.38
2022-07-28T00:52:04.089Z,12.38
2022-07-28T00:53:04.090Z,12.38
2022-07-28T00:54:03.991Z,12.38
2022-07-28T00:55:03.984Z,12.38
2022-07-28T00:56:06.515Z,12.38
2022-07-28T00:57:03.907Z,12.31
2022-07-28T00:58:04.388Z,12.31
2022-07-28T00:59:04.473Z,12.31
2022-07-28T01:00:04.396Z,12.31
2022-07-28T01:01:03.427Z,12.31
2022-07-28T01:02:03.638Z,12.25
2022-07-28T01:03:03.645Z,12.25
2022-07-28T01:04:03.597Z,12.25
2022-07-28T01:05:03.513Z,12.25
2022-07-28T01:06:03.425Z,12.25
2022-07-28T01:07:03.524Z,12.25
2022-07-28T01:08:03.582Z,12.19
2022-07-28T01:09:03.666Z,12.19
2022-07-28T01:10:03.862Z,12.19
2022-07-28T01:11:03.834Z,12.19
2022-07-28T01:12:03.784Z,12.19
2022-07-28T01:13:03.741Z,12.19
2022-07-28T01:14:03.847Z,12.12
2022-07-28T01:15:03.821Z,12.12
2022-07-28T01:16:03.786Z,12.12
2022-07-28T01:17:03.907Z,12.12
2022-07-28T01:18:03.945Z,12.06
2022-07-28T01:19:03.830Z,12.06
2022-07-28T01:20:03.903Z,12.06
2022-07-28T01:21:03.988Z,12.06
2022-07-28T01:22:03.992Z,12.06
2022-07-28T01:23:03.907Z,12.00
2022-07-28T01:24:03.923Z,12.00
2022-07-28T01:25:03.509Z,12.00
2022-07-28T01:26:03.753Z,12.00
2022-07-28T01:27:03.858Z,12.00
2022-07-28T01:28:04.321Z,12.00
2022-07-28T01:29:04.306Z,12.00
2022-07-28T01:30:04.316Z,11.94
2022-07-28T01:31:04.461Z,11.94
2022-07-28T01:32:04.309Z,11.94
2022-07-28T01:33:04.307Z,11.94
2022-07-28T01:34:04.391Z,11.94
2022-07-28T01:35:04.476Z,11.94
2022-07-28T01:36:04.393Z,11.88
2022-07-28T01:37:04.476Z,11.88
2022-07-28T01:38:03.506Z,11.88
2022-07-28T01:39:04.381Z,11.88
2022-07-28T01:40:03.523Z,11.88
2022-07-28T01:41:03.528Z,11.88
2022-07-28T01:42:03.593Z,11.81
2022-07-28T01:43:03.502Z,11.81
2022-07-28T01:44:03.498Z,11.81
2022-07-28T01:45:03.588Z,11.81
2022-07-28T01:46:03.609Z,11.81
2022-07-28T01:47:03.586Z,11.81
2022-07-28T01:48:03.750Z,11.75
2022-07-28T01:49:03.746Z,11.75
2022-07-28T01:50:03.754Z,11.75
2022-07-28T01:51:03.751Z,11.75
2022-07-28T01:52:03.748Z,11.75
2022-07-28T01:53:03.843Z,11.75
2022-07-28T01:54:03.737Z,11.69
2022-07-28T01:55:03.908Z,11.69
2022-07-28T01:56:03.827Z,11.69
2022-07-28T01:57:03.839Z,11.69
2022-07-28T01:58:03.860Z,11.69
2022-07-28T01:59:03.770Z,11.62
2022-07-28T02:00:03.766Z,11.62
2022-07-28T02:01:03.845Z,11.62
2022-07-28T02:02:03.899Z,11.62
2022-07-28T02:03:03.839Z,11.62
2022-07-28T02:04:03.778Z,11.62
2022-07-28T02:05:03.826Z,11.62
2022-07-28T02:06:03.909Z,11.56
2022-07-28T02:07:03.836Z,11.56
2022-07-28T02:08:03.909Z,11.56
2022-07-28T02:09:03.904Z,11.56
2022-07-28T02:10:04.218Z,11.56
2022-07-28T02:11:04.160Z,11.50
2022-07-28T02:12:04.227Z,11.50
2022-07-28T02:13:04.310Z,11.50
2022-07-28T02:14:04.464Z,11.50
2022-07-28T02:15:04.138Z,11.50
2022-07-28T02:16:05.973Z,11.50
2022-07-28T02:17:04.221Z,11.50
2022-07-28T02:18:04.219Z,11.50
2022-07-28T02:19:04.224Z,11.50
2022-07-28T02:20:04.228Z,11.50
2022-07-28T02:21:04.310Z,11.44
2022-07-28T02:22:04.222Z,11.44
2022-07-28T02:23:04.239Z,11.44
2022-07-28T02:24:04.388Z,11.44
2022-07-28T02:25:04.479Z,11.44
2022-07-28T02:26:04.395Z,11.44
2022-07-28T02:27:03.596Z,11.38
2022-07-28T02:28:04.473Z,11.38
2022-07-28T02:29:03.513Z,11.38
2022-07-28T02:30:03.503Z,11.38
2022-07-28T02:31:03.559Z,11.38
2022-07-28T02:32:03.683Z,11.38
2022-07-28T02:33:04.407Z,11.38
2022-07-28T02:34:03.505Z,11.38
2022-07-28T02:35:03.408Z,11.31
2022-07-28T02:36:03.450Z,11.31
2022-07-28T02:37:03.519Z,11.31
2022-07-28T02:38:04.391Z,11.31
2022-07-28T02:39:03.517Z,11.25
2022-07-28T02:40:03.498Z,11.25
2022-07-28T02:41:03.504Z,11.25
2022-07-28T02:42:03.829Z,11.25
2022-07-28T02:43:03.907Z,11.25
2022-07-28T02:44:03.990Z,11.25
2022-07-28T02:45:03.917Z,11.25
2022-07-28T02:46:03.991Z,11.25
2022-07-28T02:47:03.839Z,11.25
2022-07-28T02:48:03.506Z,11.19
2022-07-28T02:49:04.517Z,11.19
2022-07-28T02:50:03.416Z,11.19
2022-07-28T02:51:04.062Z,11.19
2022-07-28T02:52:04.079Z,11.19
2022-07-28T02:53:14.722Z,11.19
2022-07-28T02:54:03.986Z,11.19
2022-07-28T02:55:04.177Z,11.19
2022-07-28T02:56:03.742Z,11.19
2022-07-28T02:57:03.586Z,11.19
2022-07-28T02:58:05.352Z,11.12
2022-07-28T02:59:03.731Z,11.12
2022-07-28T03:00:03.676Z,11.12
2022-07-28T03:01:03.731Z,11.12
2022-07-28T03:02:03.755Z,11.12
2022-07-28T03:03:03.828Z,11.12
2022-07-28T03:04:03.826Z,11.12
2022-07-28T03:05:07.506Z,11.12
2022-07-28T03:06:03.906Z,11.06
2022-07-28T03:07:04.010Z,11.06
2022-07-28T03:08:04.068Z,11.06
2022-07-28T03:09:04.122Z,11.06
2022-07-28T03:10:04.011Z,11.06
2022-07-28T03:11:03.993Z,11.06
2022-07-28T03:12:04.071Z,11.06
2022-07-28T03:13:04.209Z,11.06
2022-07-28T03:14:04.327Z,11.06
2022-07-28T03:15:04.396Z,11.06
2022-07-28T03:16:04.396Z,11.06
2022-07-28T03:17:03.982Z,11.06
2022-07-28T03:18:03.750Z,11.06
2022-07-28T03:19:03.915Z,11.00
2022-07-28T03:20:03.923Z,11.00
2022-07-28T03:21:03.826Z,11.00
2022-07-28T03:22:03.987Z,11.00
2022-07-28T03:23:03.985Z,11.00
2022-07-28T03:24:04.083Z,11.00
2022-07-28T03:25:04.030Z,11.00
2022-07-28T03:26:04.073Z,10.94
2022-07-28T03:27:03.988Z,11.00
2022-07-28T03:28:03.989Z,10.94
2022-07-28T03:29:03.994Z,10.94
2022-07-28T03:30:04.363Z,10.94
2022-07-28T03:31:04.210Z,10.94
2022-07-28T03:33:04.551Z,10.88
2022-07-28T03:33:08.435Z,10.88
2022-07-28T03:34:03.515Z,10.88
2022-07-28T03:35:03.602Z,10.88
2022-07-28T03:36:03.601Z,10.88
2022-07-28T03:37:03.667Z,10.88
2022-07-28T03:38:03.590Z,10.88
2022-07-28T03:39:03.754Z,10.94
2022-07-28T03:40:03.667Z,10.94
2022-07-28T03:41:03.689Z,10.94
2022-07-28T03:42:04.567Z,10.94
2022-07-28T03:43:03.689Z,10.94
2022-07-28T03:44:03.683Z,11.00
2022-07-28T03:45:04.866Z,11.00
2022-07-28T03:46:04.058Z,11.00
2022-07-28T03:47:04.072Z,11.00
2022-07-28T03:48:04.153Z,11.00
2022-07-28T03:49:04.175Z,11.00
2022-07-28T03:50:04.148Z,11.06
2022-07-28T03:51:04.501Z,11.06
2022-07-28T03:52:03.505Z,11.06
2022-07-28T03:53:03.586Z,11.06
2022-07-28T03:54:03.584Z,11.12
2022-07-28T03:55:03.635Z,11.12
2022-07-28T03:56:03.894Z,11.12
2022-07-28T03:57:03.589Z,11.12
2022-07-28T03:58:03.671Z,11.19
2022-07-28T03:59:04.377Z,11.19
2022-07-28T04:00:09.211Z,11.25
2022-07-28T04:01:04.514Z,11.25
2022-07-28T04:02:04.581Z,11.31
2022-07-28T04:03:04.403Z,11.31
2022-07-28T04:04:04.554Z,11.31
2022-07-28T04:05:04.468Z,11.38
2022-07-28T04:06:04.489Z,11.38
2022-07-28T04:07:04.388Z,11.44
2022-07-28T04:08:03.503Z,11.44
2022-07-28T04:09:03.503Z,11.44
2022-07-28T04:10:03.589Z,11.50
2022-07-28T04:11:03.515Z,11.50
2022-07-28T04:12:03.500Z,11.56
2022-07-28T04:13:03.588Z,11.56
2022-07-28T04:14:03.607Z,11.62
2022-07-28T04:15:03.671Z,11.69
2022-07-28T04:16:03.584Z,11.69
2022-07-28T04:17:03.851Z,11.75
2022-07-28T04:18:03.754Z,11.81
2022-07-28T04:19:03.863Z,11.88
2022-07-28T04:20:03.843Z,11.94
2022-07-28T04:21:03.976Z,12.00
2022-07-28T04:22:03.997Z,12.06
2022-07-28T04:23:03.982Z,12.12
2022-07-28T04:24:04.153Z,12.19
2022-07-28T04:25:03.921Z,12.25
2022-07-28T04:26:03.743Z,12.31
2022-07-28T04:27:03.831Z,12.44
2022-07-28T04:28:04.144Z,12.56
2022-07-28T04:29:04.082Z,12.62
2022-07-28T04:30:03.989Z,12.69
2022-07-28T04:31:03.579Z,12.75
2022-07-28T04:32:03.508Z,12.81
2022-07-28T04:33:03.591Z,12.88
2022-07-28T04:34:03.600Z,12.88
2022-07-28T04:35:03.609Z,12.94
2022-07-28T04:36:03.670Z,13.00
2022-07-28T04:37:03.749Z,13.06
2022-07-28T04:38:03.657Z,13.12
2022-07-28T04:39:03.835Z,13.12
2022-07-28T04:40:03.837Z,13.19
2022-07-28T04:41:03.829Z,13.25
2022-07-28T04:42:03.843Z,13.25
2022-07-28T04:43:03.918Z,13.31
2022-07-28T04:44:04.073Z,13.38
2022-07-28T04:45:05.033Z,13.38
2022-07-28T04:46:05.082Z,13.44
2022-07-28T04:47:06.420Z,13.44
2022-07-28T04:48:04.153Z,13.50
2022-07-28T04:49:04.254Z,13.50
2022-07-28T04:50:04.147Z,13.56
2022-07-28T04:51:04.153Z,13.56
2022-07-28T04:52:04.223Z,13.62
2022-07-28T04:53:04.383Z,13.69
2022-07-28T04:54:04.383Z,13.75
2022-07-28T04:55:03.601Z,13.81
2022-07-28T04:56:03.511Z,13.88
2022-07-28T04:57:04.654Z,13.88
2022-07-28T04:58:03.527Z,13.94
2022-07-28T04:59:03.897Z,14.00
2022-07-28T05:00:03.494Z,14.12
2022-07-28T05:01:03.515Z,14.19
2022-07-28T05:02:03.518Z,14.19
2022-07-28T05:03:03.507Z,14.25
2022-07-28T05:04:03.607Z,14.31
2022-07-28T05:05:03.677Z,14.38
2022-07-28T05:06:03.587Z,14.50
2022-07-28T05:07:07.714Z,14.75
2022-07-28T05:08:03.658Z,14.88
2022-07-28T05:09:03.752Z,15.06
2022-07-28T05:10:03.849Z,15.19
2022-07-28T05:11:03.915Z,15.19
2022-07-28T05:12:04.070Z,15.25
2022-07-28T05:13:04.066Z,15.31
2022-07-28T05:14:04.154Z,15.31
2022-07-28T05:15:04.152Z,15.31
2022-07-28T05:16:04.313Z,15.38
2022-07-28T05:17:04.513Z,15.38
2022-07-28T05:18:04.404Z,15.38
2022-07-28T05:19:04.386Z,15.38
2022-07-28T05:20:04.402Z,15.31
2022-07-28T05:21:04.390Z,15.38
2022-07-28T05:22:04.308Z,15.38
2022-07-28T05:23:04.340Z,15.38
2022-07-28T05:24:04.232Z,15.44
2022-07-28T05:25:04.388Z,15.50
2022-07-28T05:26:03.587Z,15.69
2022-07-28T05:27:03.587Z,16.06
2022-07-28T05:28:03.581Z,16.31
2022-07-28T05:29:03.582Z,16.44
2022-07-28T05:30:03.669Z,16.38
2022-07-28T05:31:03.746Z,16.38
2022-07-28T05:32:08.077Z,16.50
2022-07-28T05:33:04.188Z,16.81
2022-07-28T05:34:04.310Z,16.81
2022-07-28T05:35:04.319Z,16.62
2022-07-28T05:36:04.399Z,16.56
2022-07-28T05:37:04.311Z,16.56
2022-07-28T05:38:07.547Z,16.62
2022-07-28T05:39:04.316Z,16.75
2022-07-28T05:40:04.397Z,17.25
2022-07-28T05:41:04.494Z,17.94
2022-07-28T05:42:04.492Z,18.69
2022-07-28T05:43:04.392Z,18.94
2022-07-28T05:44:04.391Z,19.06
2022-07-28T05:45:03.531Z,18.88
2022-07-28T05:46:03.752Z,18.81
2022-07-28T05:47:03.741Z,18.75
2022-07-28T05:48:03.751Z,19.00
2022-07-28T05:49:03.901Z,19.50
2022-07-28T05:50:03.914Z,20.06
2022-07-28T05:51:03.910Z,20.56
2022-07-28T05:52:03.830Z,20.94
2022-07-28T05:53:03.912Z,21.12
2022-07-28T05:54:03.908Z,21.31
2022-07-28T05:55:03.912Z,21.19
2022-07-28T05:56:03.914Z,20.81
2022-07-28T05:57:03.926Z,20.62
2022-07-28T05:58:03.909Z,20.50
2022-07-28T05:59:03.912Z,20.50
2022-07-28T06:00:04.113Z,20.38
2022-07-28T06:01:04.136Z,20.38
2022-07-28T06:02:04.214Z,20.50
2022-07-28T06:03:04.236Z,20.62
2022-07-28T06:04:26.910Z,21.00
2022-07-28T06:05:04.471Z,21.00
2022-07-28T06:06:14.507Z,21.94
2022-07-28T06:07:03.594Z,22.31
2022-07-28T06:08:03.755Z,22.62
2022-07-28T06:09:03.834Z,22.88
2022-07-28T06:10:03.773Z,23.12
2022-07-28T06:11:03.934Z,23.25
2022-07-28T06:12:03.828Z,23.31
2022-07-28T06:13:03.838Z,23.38
2022-07-28T06:14:03.918Z,23.31
2022-07-28T06:15:04.079Z,23.25
2022-07-28T06:16:05.474Z,23.25
2022-07-28T06:17:04.333Z,23.25
2022-07-28T06:18:04.420Z,23.19
2022-07-28T06:19:04.317Z,23.12
2022-07-28T06:20:04.408Z,23.06
2022-07-28T06:21:04.356Z,23.19
2022-07-28T06:22:04.470Z,23.31
2022-07-28T06:23:03.430Z,23.12
2022-07-28T06:24:03.604Z,23.06
2022-07-28T06:25:03.619Z,22.94
2022-07-28T06:26:03.593Z,23.00
2022-07-28T06:27:04.226Z,23.06
2022-07-28T06:28:04.235Z,23.06
2022-07-28T06:29:04.394Z,23.00
2022-07-28T06:30:04.395Z,23.00
2022-07-28T06:31:04.397Z,23.00
2022-07-28T06:32:04.462Z,23.00
2022-07-28T06:33:04.397Z,23.00
2022-07-28T06:34:04.393Z,23.00
2022-07-28T06:35:04.407Z,23.06
2022-07-28T06:36:04.311Z,23.06
2022-07-28T06:37:04.391Z,23.19
2022-07-28T06:38:03.518Z,23.19
2022-07-28T06:39:03.524Z,23.31
2022-07-28T06:40:03.612Z,23.31
2022-07-28T06:41:03.593Z,23.31
2022-07-28T06:42:03.741Z,23.38
2022-07-28T06:43:03.739Z,23.44
2022-07-28T06:44:04.398Z,23.56
2022-07-28T06:45:04.316Z,23.75
2022-07-28T06:46:04.308Z,23.81
2022-07-28T06:47:04.379Z,23.88
2022-07-28T06:48:04.310Z,23.94
2022-07-28T06:49:04.473Z,24.00
2022-07-28T06:50:04.361Z,24.12
2022-07-28T06:51:04.398Z,24.25
2022-07-28T06:52:04.333Z,24.38
2022-07-28T06:53:04.497Z,24.50
2022-07-28T06:54:08.042Z,24.62
2022-07-28T06:55:03.444Z,24.69
2022-07-28T06:56:03.610Z,24.88
2022-07-28T06:57:03.716Z,24.94
2022-07-28T06:58:03.598Z,25.06
2022-07-28T06:59:03.681Z,25.19
2022-07-28T07:00:03.838Z,25.38
2022-07-28T07:01:03.951Z,25.44
2022-07-28T07:02:04.001Z,25.56
2022-07-28T07:03:04.070Z,25.69
2022-07-28T07:04:04.216Z,25.81
2022-07-28T07:05:04.150Z,25.69
2022-07-28T07:06:04.154Z,25.75
2022-07-28T07:07:04.168Z,25.88
2022-07-28T07:08:04.234Z,25.88
2022-07-28T07:09:04.319Z,26.00
2022-07-28T07:10:04.237Z,26.19
2022-07-28T07:11:04.396Z,26.31
2022-07-28T07:12:04.556Z,26.38
2022-07-28T07:13:03.597Z,26.31
2022-07-28T07:14:03.600Z,26.38
2022-07-28T07:15:03.592Z,26.50
2022-07-28T07:16:03.783Z,26.62
2022-07-28T07:17:03.833Z,26.75
2022-07-28T07:18:03.778Z,26.75
2022-07-28T07:19:05.788Z,26.75
2022-07-28T07:20:03.744Z,26.81
2022-07-28T07:21:03.753Z,26.81
2022-07-28T07:22:03.663Z,26.81
2022-07-28T07:23:03.746Z,26.94
2022-07-28T07:24:03.743Z,27.06
2022-07-28T07:25:03.847Z,27.12
2022-07-28T07:26:03.912Z,27.25
2022-07-28T07:27:03.741Z,27.25
2022-07-28T07:28:03.743Z,27.12
2022-07-28T07:29:03.747Z,27.25
2022-07-28T07:30:03.829Z,27.38
2022-07-28T07:31:03.834Z,27.44
2022-07-28T07:32:06.917Z,27.56
2022-07-28T07:33:07.829Z,27.75
2022-07-28T07:34:03.824Z,27.81
2022-07-28T07:35:03.901Z,27.88
2022-07-28T07:36:03.991Z,27.75
2022-07-28T07:37:03.917Z,27.81
2022-07-28T07:38:04.073Z,27.81
2022-07-28T07:39:04.079Z,27.69
2022-07-28T07:40:03.525Z,27.56
2022-07-28T07:41:03.521Z,27.56
2022-07-28T07:42:03.594Z,27.44
2022-07-28T07:43:03.594Z,27.50
2022-07-28T07:44:03.751Z,27.44
2022-07-28T07:45:03.826Z,27.56
2022-07-28T07:46:04.128Z,27.56
2022-07-28T07:47:04.075Z,27.69
2022-07-28T07:48:03.998Z,27.81
2022-07-28T07:49:04.222Z,27.81
2022-07-28T07:50:04.631Z,27.69
2022-07-28T07:51:05.066Z,27.44
2022-07-28T07:52:04.314Z,27.25
2022-07-28T07:53:04.389Z,27.31
2022-07-28T07:54:04.402Z,27.19
2022-07-28T07:55:03.512Z,27.19
2022-07-28T07:56:03.514Z,27.25
2022-07-28T07:57:03.608Z,27.38
2022-07-28T07:58:03.725Z,27.44
2022-07-28T07:59:03.602Z,27.62
2022-07-28T08:00:03.679Z,27.56
2022-07-28T08:01:04.313Z,27.50
2022-07-28T08:02:04.506Z,27.38
2022-07-28T08:03:04.395Z,27.44
2022-07-28T08:04:03.595Z,27.56
2022-07-28T08:05:03.812Z,27.62
2022-07-28T08:06:03.851Z,27.62
2022-07-28T08:07:03.943Z,27.62
2022-07-28T08:08:03.923Z,27.62
2022-07-28T08:09:03.993Z,27.50
2022-07-28T08:10:03.992Z,27.25
2022-07-28T08:11:04.025Z,27.06
2022-07-28T08:12:04.071Z,26.94
2022-07-28T08:13:04.048Z,26.75
2022-07-28T08:14:04.076Z,26.62
2022-07-28T08:15:04.159Z,26.50
2022-07-28T08:16:04.141Z,26.38
2022-07-28T08:17:04.070Z,26.25
2022-07-28T08:18:04.148Z,26.38
2022-07-28T08:19:04.275Z,26.38
2022-07-28T08:20:04.206Z,26.38
2022-07-28T08:21:04.236Z,26.25
2022-07-28T08:22:04.245Z,26.25
2022-07-28T08:23:04.250Z,26.19
2022-07-28T08:24:04.249Z,26.19
2022-07-28T08:25:04.338Z,26.06
2022-07-28T08:26:04.415Z,26.00
2022-07-28T08:27:04.396Z,26.00
2022-07-28T08:28:04.412Z,26.06
2022-07-28T08:29:04.468Z,26.06
2022-07-28T08:30:03.523Z,26.06
2022-07-28T08:31:03.639Z,25.94
2022-07-28T08:32:03.682Z,25.88
2022-07-28T08:33:03.701Z,25.75
2022-07-28T08:34:03.672Z,25.69
2022-07-28T08:35:30.166Z,25.44
2022-07-28T08:36:03.680Z,25.31
2022-07-28T08:37:04.163Z,25.38
2022-07-28T08:38:04.317Z,25.38
2022-07-28T08:39:04.305Z,25.44
2022-07-28T08:40:04.407Z,25.38
2022-07-28T08:41:03.830Z,25.44
2022-07-28T08:42:03.826Z,25.44
2022-07-28T08:43:03.831Z,25.38
2022-07-28T08:44:03.853Z,25.19
2022-07-28T08:45:03.828Z,25.12
2022-07-28T08:46:03.963Z,25.06
2022-07-28T08:47:04.064Z,25.00
2022-07-28T08:48:08.457Z,24.94
2022-07-28T08:49:04.035Z,25.00
2022-07-28T08:50:04.074Z,25.12
2022-07-28T08:51:03.993Z,25.12
2022-07-28T08:52:04.152Z,25.19
2022-07-28T08:53:04.150Z,25.31
2022-07-28T08:54:04.069Z,25.31
2022-07-28T08:55:04.237Z,25.19
2022-07-28T08:56:04.142Z,25.12
2022-07-28T08:57:04.223Z,25.12
2022-07-28T08:58:04.317Z,25.06
2022-07-28T08:59:04.489Z,25.00
2022-07-28T09:00:04.432Z,24.94
2022-07-28T09:01:04.381Z,25.00
2022-07-28T09:02:03.513Z,25.00
2022-07-28T09:03:03.663Z,25.00
2022-07-28T09:04:03.503Z,24.75
2022-07-28T09:05:03.506Z,24.62
2022-07-28T09:06:03.439Z,24.50
2022-07-28T09:07:03.500Z,24.38
2022-07-28T09:08:03.509Z,24.38
2022-07-28T09:09:03.717Z,24.38
2022-07-28T09:10:03.762Z,24.31
2022-07-28T09:11:03.676Z,24.44
2022-07-28T09:12:03.678Z,24.38
2022-07-28T09:13:03.666Z,24.31
2022-07-28T09:14:03.762Z,24.19
2022-07-28T09:15:03.989Z,24.12
2022-07-28T09:16:04.063Z,24.12
2022-07-28T09:17:05.530Z,24.06
2022-07-28T09:18:04.071Z,24.00
2022-07-28T09:19:04.068Z,23.94
2022-07-28T09:20:07.472Z,23.94
2022-07-28T09:21:04.139Z,23.94
2022-07-28T09:22:04.147Z,23.94
2022-07-28T09:23:04.238Z,23.94
2022-07-28T09:24:04.310Z,23.94
2022-07-28T09:25:04.302Z,23.88
2022-07-28T09:26:07.065Z,23.94
2022-07-28T09:27:03.505Z,23.94
2022-07-28T09:28:03.503Z,23.88
2022-07-28T09:29:03.667Z,23.81
2022-07-28T09:30:04.258Z,23.75
2022-07-28T09:31:04.437Z,23.69
2022-07-28T09:32:04.417Z,23.69
2022-07-28T09:33:04.393Z,23.75
2022-07-28T09:34:04.494Z,23.88
2022-07-28T09:35:04.465Z,23.88
2022-07-28T09:36:03.532Z,23.94
2022-07-28T09:37:03.585Z,23.81
2022-07-28T09:38:03.499Z,23.75
2022-07-28T09:39:03.577Z,23.69
2022-07-28T09:40:04.264Z,23.62
2022-07-28T09:41:03.911Z,23.62
2022-07-28T09:42:03.912Z,23.50
2022-07-28T09:43:03.911Z,23.50
2022-07-28T09:44:03.996Z,23.62
2022-07-28T09:45:21.625Z,23.56
2022-07-28T09:46:04.248Z,23.56
2022-07-28T09:47:04.191Z,23.62
2022-07-28T09:48:04.380Z,23.62
2022-07-28T09:49:04.288Z,23.62
2022-07-28T09:50:04.290Z,23.62
2022-07-28T09:51:04.305Z,23.62
2022-07-28T09:52:04.312Z,23.56
2022-07-28T09:53:04.479Z,23.56
2022-07-28T09:54:04.383Z,23.62
2022-07-28T09:55:04.477Z,23.62
2022-07-28T09:56:04.557Z,23.56
2022-07-28T09:57:03.597Z,23.56
2022-07-28T09:58:03.576Z,23.50
2022-07-28T09:59:04.413Z,23.50
2022-07-28T10:00:03.512Z,23.50
2022-07-28T10:01:03.710Z,23.50
2022-07-28T10:02:03.644Z,23.56
2022-07-28T10:03:03.769Z,23.50
2022-07-28T10:04:03.774Z,23.56
2022-07-28T10:05:03.756Z,23.56
2022-07-28T10:06:03.918Z,23.62
2022-07-28T10:07:03.983Z,23.69
2022-07-28T10:08:03.906Z,23.69
2022-07-28T10:09:03.936Z,23.69
2022-07-28T10:10:03.919Z,23.62
2022-07-28T10:11:03.994Z,23.62
2022-07-28T10:12:03.984Z,23.62
2022-07-28T10:13:04.069Z,23.62
2022-07-28T10:14:04.066Z,23.62
2022-07-28T10:15:03.991Z,23.69
2022-07-28T10:16:04.119Z,23.69
2022-07-28T10:17:05.977Z,23.62
2022-07-28T10:18:04.236Z,23.56
2022-07-28T10:19:04.314Z,23.56
2022-07-28T10:20:04.346Z,23.56
2022-07-28T10:21:04.383Z,23.56
2022-07-28T10:22:04.310Z,23.62
2022-07-28T10:23:04.398Z,23.69
2022-07-28T10:24:04.460Z,23.75
2022-07-28T10:25:03.517Z,23.81
2022-07-28T10:26:03.557Z,23.88
2022-07-28T10:27:03.524Z,23.94
2022-07-28T10:28:03.505Z,23.94
2022-07-28T10:29:03.675Z,23.94
2022-07-28T10:30:03.686Z,23.81
2022-07-28T10:31:03.811Z,23.81
2022-07-28T10:32:03.763Z,23.81
2022-07-28T10:33:03.752Z,23.81
2022-07-28T10:34:03.755Z,23.94
2022-07-28T10:35:03.755Z,23.94
2022-07-28T10:36:03.743Z,23.88
2022-07-28T10:37:03.772Z,23.94
2022-07-28T10:38:03.838Z,24.00
2022-07-28T10:39:03.753Z,24.00
2022-07-28T10:40:07.933Z,24.00
2022-07-28T10:41:03.993Z,24.06
2022-07-28T10:42:03.906Z,24.00
2022-07-28T10:43:03.915Z,24.00
2022-07-28T10:44:03.925Z,24.00
2022-07-28T10:45:03.993Z,24.06
2022-07-28T10:46:05.918Z,24.06
2022-07-28T10:47:04.240Z,24.12
2022-07-28T10:48:04.243Z,24.12
2022-07-28T10:49:04.263Z,24.06
2022-07-28T10:50:04.224Z,24.00
2022-07-28T10:51:06.029Z,24.06
2022-07-28T10:52:06.620Z,24.00
2022-07-28T10:53:03.834Z,24.00
2022-07-28T10:54:03.751Z,24.00
2022-07-28T10:55:03.747Z,24.06
2022-07-28T10:56:03.753Z,24.06
2022-07-28T10:57:04.667Z,24.06
2022-07-28T10:58:11.101Z,24.12
2022-07-28T10:59:04.969Z,24.19
2022-07-28T11:00:12.538Z,24.19
2022-07-28T11:01:06.142Z,24.19
2022-07-28T11:02:04.207Z,24.25
2022-07-28T11:03:07.550Z,24.25
2022-07-28T11:04:04.158Z,24.25
2022-07-28T11:05:04.229Z,24.38
2022-07-28T11:06:04.395Z,24.31
2022-07-28T11:07:03.986Z,24.38
2022-07-28T11:08:04.176Z,24.38
2022-07-28T11:09:04.231Z,24.38
2022-07-28T11:10:04.220Z,24.38
2022-07-28T11:11:08.901Z,24.38
2022-07-28T11:12:04.296Z,24.38
2022-07-28T11:13:04.365Z,24.44
2022-07-28T11:14:04.493Z,24.50
2022-07-28T11:15:15.590Z,24.44
2022-07-28T11:16:03.746Z,24.50
2022-07-28T11:17:03.842Z,24.50
2022-07-28T11:18:03.849Z,24.56
2022-07-28T11:19:04.698Z,24.62
2022-07-28T11:20:25.061Z,24.56
2022-07-28T11:21:04.250Z,24.56
2022-07-28T11:22:04.236Z,24.56
2022-07-28T11:23:04.243Z,24.56
2022-07-28T11:24:04.252Z,24.62
2022-07-28T11:25:18.332Z,24.69
2022-07-28T11:26:04.401Z,24.75
2022-07-28T11:27:04.186Z,24.75
2022-07-28T11:28:03.766Z,24.81
2022-07-28T11:29:03.509Z,24.88
2022-07-28T11:30:03.524Z,24.81
2022-07-28T11:31:03.907Z,24.88
2022-07-28T11:32:03.753Z,24.88
2022-07-28T11:33:03.827Z,24.94
2022-07-28T11:34:03.861Z,25.00
2022-07-28T11:35:03.908Z,25.00
2022-07-28T11:36:04.080Z,25.00
2022-07-28T11:37:04.067Z,25.00
2022-07-28T11:38:04.158Z,25.00
2022-07-28T11:39:04.138Z,24.94
2022-07-28T11:40:04.147Z,24.88
2022-07-28T11:41:04.224Z,24.88
2022-07-28T11:42:04.260Z,24.81
2022-07-28T11:43:04.307Z,24.75
2022-07-28T11:44:04.406Z,24.81
2022-07-28T11:45:04.403Z,24.88
2022-07-28T11:46:04.564Z,24.81
2022-07-28T11:47:03.505Z,24.75
2022-07-28T11:48:03.512Z,24.69
2022-07-28T11:49:03.658Z,24.69
2022-07-28T11:50:03.667Z,24.69
2022-07-28T11:51:03.590Z,24.75
2022-07-28T11:52:03.680Z,24.81
2022-07-28T11:53:03.534Z,24.94
2022-07-28T11:54:03.661Z,25.00
2022-07-28T11:55:03.676Z,25.06
2022-07-28T11:56:03.753Z,25.12
2022-07-28T11:57:03.769Z,25.12
2022-07-28T11:58:03.743Z,25.12
2022-07-28T11:59:03.742Z,25.12
2022-07-28T12:00:03.833Z,25.12
2022-07-28T12:01:04.092Z,25.12
2022-07-28T12:02:04.156Z,25.00
2022-07-28T12:03:04.244Z,25.06
2022-07-28T12:04:04.293Z,25.06
2022-07-28T12:05:04.474Z,25.00
2022-07-28T12:06:04.308Z,25.00
2022-07-28T12:07:04.509Z,25.00
2022-07-28T12:08:03.423Z,25.00
2022-07-28T12:09:03.515Z,25.00
2022-07-28T12:10:03.526Z,25.00
2022-07-28T12:11:03.980Z,25.00
2022-07-28T12:12:03.908Z,24.94
2022-07-28T12:13:03.908Z,24.88
2022-07-28T12:14:03.992Z,24.88
2022-07-28T12:15:07.012Z,24.94
2022-07-28T12:16:04.231Z,25.06
2022-07-28T12:17:04.356Z,25.12
2022-07-28T12:18:04.319Z,25.19
2022-07-28T12:19:04.304Z,25.19
2022-07-28T12:20:04.317Z,25.19
2022-07-28T12:21:05.286Z,25.19
2022-07-28T12:22:04.239Z,25.12
2022-07-28T12:23:04.384Z,25.12
2022-07-28T12:24:04.421Z,25.12
2022-07-28T12:25:04.390Z,25.12
2022-07-28T12:26:03.597Z,25.06
2022-07-28T12:27:03.579Z,25.06
2022-07-28T12:28:03.689Z,25.00
2022-07-28T12:29:04.094Z,25.06
2022-07-28T12:30:04.023Z,25.06
2022-07-28T12:31:03.906Z,25.12
2022-07-28T12:32:04.049Z,25.12
2022-07-28T12:33:04.070Z,25.19
2022-07-28T12:34:04.149Z,25.19
2022-07-28T12:35:04.158Z,25.19
2022-07-28T12:36:05.504Z,25.19
2022-07-28T12:37:04.329Z,25.12
2022-07-28T12:38:04.311Z,25.12
2022-07-28T12:39:05.694Z,25.06
2022-07-28T12:40:03.587Z,25.12
2022-07-28T12:41:03.579Z,25.06
2022-07-28T12:42:03.582Z,25.12
2022-07-28T12:43:03.592Z,25.19
2022-07-28T12:44:05.672Z,25.25
2022-07-28T12:45:03.915Z,25.31
2022-07-28T12:46:03.899Z,25.31
2022-07-28T12:47:03.932Z,25.38
2022-07-28T12:48:03.902Z,25.44
2022-07-28T12:49:04.039Z,25.50
2022-07-28T12:50:06.947Z,25.50
2022-07-28T12:51:03.997Z,25.56
2022-07-28T12:52:03.982Z,25.56